KIAD/IAD METAR and TAF weather

Enter ICAO airport designator
Station Type Date Time Source
KIAD METAR 2021/06/22 23:52 UTC NOAA

KIAD 222352Z 34010KT 10SM FEW055 SCT200 BKN250 21/10 A2992 RMK AO2 SLP130 T02110100 10217 20189 53023 $


Station Type Date Time Source
KIAD Decoded METAR 2021/06/22 23:52 UTC NOAA

DULLES INTERNATIONAL AIRPORT, VA, United States (KIAD) 38-56N 077-27W 93M
Jun 22, 2021 - 07:52 PM EDT / 2021.06.22 2352 UTC
Wind: from the NNW (340 degrees) at 12 MPH (10 KT):0
Visibility: 10 mile(s):0
Sky conditions: mostly cloudy
Temperature: 70.0 F (21.1 C)
Dew Point: 50.0 F (10.0 C)
Relative Humidity: 49%
Pressure (altimeter): 29.92 in. Hg (1013 hPa)
Pressure tendency: 0.07 inches (2.3 hPa) higher than three hours ago
ob: KIAD 222352Z 34010KT 10SM FEW055 SCT200 BKN250 21/10 A2992 RMK AO2 SLP130 T02110100 10217 20189 53023
cycle: 0

Station Type Date Time Source
KIAD TAF 2021/06/22 21:12 UTC NOAA

TAF
AMD KIAD 222110Z 2221/2324 33012KT P6SM FEW022 SCT160 BKN200
FM230200 31004KT P6SM SCT150
FM231300 36004KT P6SM SKC
FM231700 33005KT P6SM SKC

Example: see airport list